createdAt,value
2022-12-15T09:38:50.190Z,15.80
2022-12-15T09:48:00.969Z,20.85
2022-12-15T09:50:35.709Z,24.73
2022-12-15T09:53:03.467Z,18.23
2022-12-15T09:55:32.692Z,18.88
2022-12-15T09:58:30.405Z,20.42
2022-12-15T10:01:22.047Z,20.40
2022-12-15T10:04:20.800Z,17.50
2022-12-15T10:06:57.653Z,21.25
2022-12-15T10:09:30.520Z,20.50
2022-12-15T10:12:06.700Z,20.80
2022-12-15T10:15:18.313Z,24.27
2022-12-15T10:20:40.760Z,23.35
2022-12-15T10:23:16.656Z,19.98
2022-12-15T10:26:20.722Z,19.80
2022-12-15T10:29:06.570Z,20.30
2022-12-15T10:31:41.963Z,20.40
2022-12-15T10:34:18.347Z,18.02
2022-12-15T10:36:51.140Z,19.00
2022-12-15T10:39:17.902Z,24.35
2022-12-15T10:41:44.398Z,18.77
2022-12-15T10:44:32.073Z,19.37
2022-12-15T10:46:59.269Z,22.02
2022-12-15T10:49:25.717Z,17.70
2022-12-15T10:51:52.088Z,17.38
2022-12-15T10:54:18.862Z,17.58
2022-12-15T10:56:50.123Z,14.83
2022-12-15T10:59:22.862Z,19.58
2022-12-15T11:01:50.907Z,18.30
2022-12-15T11:04:33.754Z,17.90
2022-12-15T11:07:02.924Z,18.63
2022-12-15T11:09:34.312Z,21.53
2022-12-15T11:12:20.446Z,16.00
2022-12-15T11:14:49.727Z,17.77
2022-12-15T11:17:20.818Z,19.17
2022-12-15T11:20:02.722Z,19.27
2022-12-15T11:22:45.885Z,15.03
2022-12-15T11:25:36.770Z,18.70
2022-12-15T11:28:11.272Z,14.73
2022-12-15T11:30:46.099Z,17.08
2022-12-15T11:33:12.866Z,18.40
2022-12-15T11:36:09.875Z,17.97
2022-12-15T11:38:47.374Z,18.88
2022-12-15T11:41:33.937Z,17.23
2022-12-15T11:44:23.936Z,18.00
2022-12-15T11:47:20.574Z,19.33
2022-12-15T11:50:07.643Z,18.00
2022-12-15T11:52:49.027Z,15.82
2022-12-15T11:55:18.498Z,19.58
2022-12-15T11:58:01.061Z,18.98
2022-12-15T12:00:34.935Z,17.65
2022-12-15T12:03:11.521Z,20.83
2022-12-15T12:06:25.918Z,20.88
2022-12-15T12:09:16.973Z,16.40
2022-12-15T12:12:11.974Z,19.30
2022-12-15T12:14:51.149Z,15.82
2022-12-15T12:17:42.417Z,21.70
2022-12-15T12:20:18.519Z,15.48
2022-12-15T12:23:05.047Z,20.10
2022-12-15T12:25:39.973Z,15.63
2022-12-15T12:29:01.821Z,19.58
2022-12-15T12:31:51.599Z,14.50
2022-12-15T12:34:26.880Z,17.63
2022-12-15T12:36:55.082Z,16.10
2022-12-15T12:39:25.458Z,19.17
2022-12-15T12:42:07.508Z,20.98
2022-12-15T12:44:37.629Z,20.63
2022-12-15T12:47:11.746Z,20.52
2022-12-15T12:49:45.303Z,15.13
2022-12-15T12:52:31.305Z,17.67
2022-12-15T12:55:21.166Z,19.58
2022-12-15T12:57:47.742Z,20.17
2022-12-15T13:00:36.305Z,18.30
2022-12-15T13:03:12.381Z,21.67
2022-12-15T13:05:42.381Z,20.88
2022-12-15T13:08:08.809Z,19.48
2022-12-15T13:10:37.881Z,20.73
2022-12-15T13:13:29.671Z,25.75
2022-12-15T13:16:27.820Z,28.23
2022-12-15T13:19:03.536Z,22.73
2022-12-15T13:21:42.564Z,25.05
2022-12-15T13:24:34.337Z,23.67
2022-12-15T13:27:19.879Z,23.38
2022-12-15T13:30:00.158Z,18.17
2022-12-15T13:32:26.655Z,21.65
2022-12-15T13:34:56.666Z,26.25
2022-12-15T13:37:51.430Z,22.17
2022-12-15T13:40:35.185Z,21.27
2022-12-15T13:43:04.916Z,22.75
2022-12-15T13:45:37.545Z,22.83
2022-12-15T13:48:35.410Z,22.90
2022-12-15T13:51:25.565Z,21.87
2022-12-15T13:54:16.763Z,21.40
2022-12-15T13:57:04.302Z,20.55
2022-12-15T13:59:41.985Z,21.73
2022-12-15T14:02:36.135Z,22.52
2022-12-15T14:05:20.025Z,24.47
2022-12-15T14:07:56.551Z,19.75
2022-12-15T14:10:45.170Z,26.15
2022-12-15T14:13:25.030Z,25.85
2022-12-15T14:16:07.321Z,21.55
2022-12-15T14:18:42.100Z,17.00
2022-12-15T14:21:30.323Z,25.63
2022-12-15T14:24:36.550Z,24.35
2022-12-15T14:26:44.429Z,26.35
2022-12-15T14:35:40.684Z,21.13
2022-12-15T14:41:40.729Z,22.50
2022-12-15T14:44:38.284Z,28.27
2022-12-15T14:47:12.448Z,20.80
2022-12-15T14:49:42.818Z,20.33
2022-12-15T14:52:26.703Z,23.88
2022-12-15T14:54:59.160Z,26.42
2022-12-15T14:57:40.852Z,23.80
2022-12-15T15:00:49.286Z,23.73
2022-12-15T15:06:01.038Z,26.75
2022-12-15T15:08:29.642Z,27.10
2022-12-15T15:11:00.418Z,27.55
2022-12-15T15:13:40.219Z,28.67
2022-12-15T15:16:14.448Z,20.85
2022-12-15T15:18:42.608Z,27.25
2022-12-15T15:21:17.400Z,26.63
2022-12-15T15:24:25.517Z,22.70
2022-12-15T15:26:53.303Z,22.90
2022-12-15T15:30:09.419Z,24.20
2022-12-15T15:32:59.017Z,23.25
2022-12-15T15:35:31.842Z,26.00
2022-12-15T15:38:04.955Z,29.65
2022-12-15T15:40:33.897Z,24.93
2022-12-15T15:43:00.540Z,24.10
2022-12-15T15:45:27.782Z,25.92
2022-12-15T15:47:56.299Z,24.92
2022-12-15T15:50:28.959Z,25.08
2022-12-15T15:52:56.938Z,27.63
2022-12-15T15:55:29.961Z,25.45
2022-12-15T15:57:57.798Z,25.33
2022-12-15T16:00:25.586Z,29.73
2022-12-15T16:02:52.414Z,22.70
2022-12-15T16:05:20.910Z,22.73
2022-12-15T16:07:47.636Z,26.83
2022-12-15T16:10:17.023Z,28.75
2022-12-15T16:12:53.208Z,30.75
2022-12-15T16:15:23.240Z,28.52
2022-12-15T16:17:50.019Z,27.80
2022-12-15T16:20:19.176Z,25.70
2022-12-15T16:22:49.970Z,34.28
2022-12-15T16:25:48.419Z,27.15
2022-12-15T16:28:25.053Z,29.38
2022-12-15T16:30:52.249Z,36.03
2022-12-15T16:33:19.826Z,28.98
2022-12-15T16:35:48.242Z,27.55
2022-12-15T16:38:19.488Z,28.30
2022-12-15T16:40:46.152Z,29.45
2022-12-15T16:43:21.836Z,31.90
2022-12-15T16:45:53.774Z,28.73
2022-12-15T16:48:20.882Z,33.55
2022-12-15T16:50:56.199Z,31.30
2022-12-15T16:53:29.624Z,26.33
2022-12-15T16:55:59.658Z,27.87
2022-12-15T16:58:27.825Z,36.28
2022-12-15T17:00:54.942Z,27.83
2022-12-15T17:03:25.654Z,36.50
2022-12-15T17:05:55.607Z,29.83
2022-12-15T17:08:40.111Z,26.73
2022-12-15T17:11:11.829Z,45.17
2022-12-15T17:13:45.851Z,32.30
2022-12-15T17:16:15.827Z,41.33
2022-12-15T17:18:42.857Z,28.65
2022-12-15T17:21:16.752Z,30.97
2022-12-15T17:23:45.898Z,31.13
2022-12-15T17:26:29.528Z,35.67
2022-12-15T17:29:06.090Z,31.67
2022-12-15T17:31:35.652Z,32.92
2022-12-15T17:34:27.222Z,28.73
2022-12-15T17:36:54.522Z,29.63
2022-12-15T17:39:22.294Z,28.42
2022-12-15T17:41:59.863Z,28.92
2022-12-15T17:44:35.111Z,28.90
2022-12-15T17:47:07.057Z,35.50
2022-12-15T17:49:38.977Z,29.77
2022-12-15T17:52:28.480Z,33.13
2022-12-15T17:54:55.758Z,30.30
2022-12-15T17:57:22.521Z,33.70
2022-12-15T17:59:49.015Z,35.83
2022-12-15T18:02:15.914Z,34.85
2022-12-15T18:04:43.685Z,27.05
2022-12-15T18:07:28.208Z,30.58
2022-12-15T18:09:55.041Z,29.05
2022-12-15T18:12:26.411Z,31.87
2022-12-15T18:14:55.739Z,27.55
2022-12-15T18:17:23.710Z,28.75
2022-12-15T18:19:50.100Z,29.90
2022-12-15T18:22:23.696Z,34.42
2022-12-15T18:24:52.850Z,27.83
2022-12-15T18:27:28.287Z,34.88
2022-12-15T18:29:56.433Z,35.28
2022-12-15T18:32:27.189Z,26.60
2022-12-15T18:34:54.872Z,32.15
2022-12-15T18:37:24.625Z,33.77
2022-12-15T18:39:51.171Z,33.45
2022-12-15T18:42:20.330Z,32.97
2022-12-15T18:44:49.281Z,29.42
2022-12-15T18:47:21.090Z,28.58
2022-12-15T18:49:47.705Z,32.30
2022-12-15T18:52:23.297Z,29.98
2022-12-15T18:54:51.144Z,28.98
2022-12-15T18:57:36.066Z,26.42
2022-12-15T19:00:13.907Z,28.52
2022-12-15T19:02:41.515Z,32.27
2022-12-15T19:05:27.374Z,30.38
2022-12-15T19:07:57.565Z,30.13
2022-12-15T19:10:26.627Z,28.08
2022-12-15T19:12:58.371Z,30.83
2022-12-15T19:15:25.968Z,31.57
2022-12-15T19:18:12.488Z,33.17
2022-12-15T19:20:57.834Z,31.98
2022-12-15T19:23:26.405Z,33.78
2022-12-15T19:25:53.647Z,33.92
2022-12-15T19:31:03.316Z,28.35
2022-12-15T19:33:30.585Z,32.95
2022-12-15T19:35:57.502Z,29.35
2022-12-15T19:38:32.263Z,26.38
2022-12-15T19:40:59.684Z,31.83
2022-12-15T19:43:26.914Z,27.85
2022-12-15T19:45:56.345Z,35.47
2022-12-15T19:48:24.055Z,25.73
2022-12-15T19:50:52.171Z,31.70
2022-12-15T19:53:26.055Z,35.30
2022-12-15T19:55:55.548Z,27.83
2022-12-15T19:58:33.709Z,36.40
2022-12-15T20:01:04.209Z,28.67
2022-12-15T20:03:31.829Z,25.30
2022-12-15T20:06:01.063Z,33.63
2022-12-15T20:08:32.967Z,36.58
2022-12-15T20:11:01.066Z,33.60
2022-12-15T20:13:27.811Z,37.47
2022-12-15T20:15:54.626Z,30.02
2022-12-15T20:18:21.145Z,33.07
2022-12-15T20:20:49.137Z,30.52
2022-12-15T20:23:19.682Z,32.08
2022-12-15T20:25:47.244Z,32.28
